createdAt,value
2017-12-15T00:01:16.592Z,91.99
2017-12-15T00:03:44.901Z,92.16
2017-12-15T00:06:14.011Z,92.11
2017-12-15T00:08:42.352Z,92.24
2017-12-15T00:11:10.668Z,92.10
2017-12-15T00:13:38.984Z,91.30
2017-12-15T00:16:07.324Z,90.94
2017-12-15T00:18:35.648Z,90.83
2017-12-15T00:21:03.988Z,90.80
2017-12-15T00:23:32.336Z,90.98
2017-12-15T00:26:00.684Z,91.04
2017-12-15T00:28:29.810Z,91.19
2017-12-15T00:30:59.489Z,91.20
2017-12-15T00:33:27.812Z,91.49
2017-12-15T00:35:56.262Z,91.71
2017-12-15T00:38:24.570Z,91.86
2017-12-15T00:40:52.882Z,91.87
2017-12-15T00:43:21.241Z,91.94
2017-12-15T00:45:49.633Z,91.96
2017-12-15T00:48:17.974Z,92.12
2017-12-15T00:50:46.378Z,92.27
2017-12-15T00:53:14.696Z,92.28
2017-12-15T00:55:43.076Z,92.17
2017-12-15T00:58:11.453Z,92.09
2017-12-15T01:03:14.384Z,91.97
2017-12-15T01:05:43.501Z,91.90
2017-12-15T01:08:11.864Z,91.86
2017-12-15T01:10:40.182Z,91.95
2017-12-15T01:13:08.500Z,91.96
2017-12-15T01:15:37.591Z,91.87
2017-12-15T01:18:06.723Z,91.66
2017-12-15T01:20:35.036Z,91.78
2017-12-15T01:23:03.356Z,91.98
2017-12-15T01:25:31.700Z,92.04
2017-12-15T01:28:00.013Z,92.18
2017-12-15T01:30:28.324Z,92.30
2017-12-15T01:32:56.694Z,92.44
2017-12-15T01:35:25.021Z,92.45
2017-12-15T01:37:54.096Z,92.50
2017-12-15T01:40:22.445Z,92.50
2017-12-15T01:42:50.755Z,92.54
2017-12-15T01:45:19.093Z,92.50
2017-12-15T01:47:47.439Z,92.36
2017-12-15T01:50:16.602Z,92.40
2017-12-15T01:52:44.912Z,92.39
2017-12-15T01:55:13.274Z,92.24
2017-12-15T01:57:41.617Z,92.21
2017-12-15T02:00:09.949Z,92.22
2017-12-15T02:02:38.375Z,92.20
2017-12-15T02:05:07.485Z,92.08
2017-12-15T02:07:35.816Z,91.98
2017-12-15T02:10:04.167Z,91.83
2017-12-15T02:12:33.266Z,91.76
2017-12-15T02:15:01.612Z,91.63
2017-12-15T02:17:29.954Z,91.67
2017-12-15T02:19:58.296Z,91.51
2017-12-15T02:22:26.678Z,91.41
2017-12-15T02:24:55.784Z,91.49
2017-12-15T02:27:24.113Z,91.37
2017-12-15T02:29:52.425Z,91.38
2017-12-15T02:32:21.526Z,91.43
2017-12-15T02:34:49.846Z,91.44
2017-12-15T02:37:18.168Z,91.42
2017-12-15T02:39:47.280Z,91.16
2017-12-15T02:42:15.606Z,91.12
2017-12-15T02:44:43.920Z,90.81
2017-12-15T02:47:13.129Z,90.63
2017-12-15T02:49:41.457Z,90.17
2017-12-15T02:52:09.803Z,89.84
2017-12-15T02:54:38.163Z,89.77
2017-12-15T02:57:06.474Z,89.72
2017-12-15T02:59:34.805Z,89.74
2017-12-15T03:02:03.910Z,89.55
2017-12-15T03:04:32.237Z,89.54
2017-12-15T03:07:00.575Z,89.82
2017-12-15T03:09:28.936Z,89.44
2017-12-15T03:11:58.029Z,89.65
2017-12-15T03:14:27.176Z,89.67
2017-12-15T03:16:55.512Z,89.63
2017-12-15T03:19:23.823Z,89.39
2017-12-15T03:21:52.138Z,89.46
2017-12-15T03:24:21.267Z,89.46
2017-12-15T03:26:49.642Z,89.51
2017-12-15T03:29:18.687Z,89.44
2017-12-15T03:31:47.040Z,89.34
2017-12-15T03:34:15.395Z,89.36
2017-12-15T03:36:43.731Z,89.74
2017-12-15T03:39:12.081Z,89.74
2017-12-15T03:41:40.416Z,89.95
2017-12-15T03:44:08.757Z,89.61
2017-12-15T03:46:37.125Z,89.29
2017-12-15T03:49:05.452Z,89.23
2017-12-15T03:51:33.766Z,89.37
2017-12-15T03:54:02.175Z,90.01
2017-12-15T03:56:30.508Z,89.93
2017-12-15T03:58:58.830Z,89.78
2017-12-15T04:01:27.174Z,90.12
2017-12-15T04:03:55.527Z,89.92
2017-12-15T04:06:23.904Z,89.32
2017-12-15T04:08:52.316Z,89.84
2017-12-15T04:11:20.635Z,89.87
2017-12-15T04:13:49.736Z,90.15
2017-12-15T04:16:18.877Z,90.15
2017-12-15T04:18:48.022Z,90.32
2017-12-15T04:21:16.371Z,90.41
2017-12-15T04:23:44.743Z,90.19
2017-12-15T04:26:13.064Z,89.83
2017-12-15T04:28:41.439Z,89.75
2017-12-15T04:31:09.787Z,89.90
2017-12-15T04:33:38.147Z,89.73
2017-12-15T04:36:06.462Z,89.60
2017-12-15T04:38:35.565Z,89.76
2017-12-15T04:41:03.876Z,89.68
2017-12-15T04:43:32.183Z,89.26
2017-12-15T04:46:00.529Z,89.46
2017-12-15T04:48:28.851Z,89.47
2017-12-15T04:50:57.195Z,89.78
2017-12-15T04:53:25.536Z,90.15
2017-12-15T04:55:53.868Z,89.97
2017-12-15T04:58:22.223Z,89.51
2017-12-15T05:00:50.540Z,89.87
2017-12-15T05:03:19.616Z,89.91
2017-12-15T05:05:47.979Z,89.84
2017-12-15T05:08:16.315Z,89.71
2017-12-15T05:10:44.627Z,89.68
2017-12-15T05:13:12.967Z,89.53
2017-12-15T05:15:41.283Z,89.45
2017-12-15T05:18:09.602Z,89.32
2017-12-15T05:20:38.718Z,89.53
2017-12-15T05:23:07.075Z,89.72
2017-12-15T05:25:36.158Z,90.01
2017-12-15T05:28:04.533Z,89.78
2017-12-15T05:30:32.851Z,90.22
2017-12-15T05:33:01.163Z,90.85
2017-12-15T05:35:29.513Z,90.85
2017-12-15T05:37:57.853Z,91.12
2017-12-15T05:40:26.197Z,91.09
2017-12-15T05:42:54.543Z,91.39
2017-12-15T05:45:22.887Z,91.45
2017-12-15T05:47:51.980Z,91.00
2017-12-15T05:50:20.339Z,90.88
2017-12-15T05:52:48.665Z,90.62
2017-12-15T05:55:17.028Z,90.67
2017-12-15T05:57:46.160Z,90.63
2017-12-15T06:00:14.505Z,90.24
2017-12-15T06:02:42.839Z,89.98
2017-12-15T06:05:11.209Z,90.43
2017-12-15T06:07:39.554Z,90.17
2017-12-15T06:10:07.908Z,90.15
2017-12-15T06:12:37.198Z,90.22
2017-12-15T06:15:06.284Z,90.18
2017-12-15T06:17:34.647Z,90.34
2017-12-15T06:20:03.003Z,90.72
2017-12-15T06:22:31.324Z,90.97
2017-12-15T06:25:00.434Z,91.29
2017-12-15T06:27:29.555Z,91.51
2017-12-15T06:29:57.888Z,92.33
2017-12-15T06:32:26.992Z,92.16
2017-12-15T06:34:56.097Z,91.81
2017-12-15T06:37:25.175Z,91.54
2017-12-15T06:39:54.379Z,91.81
2017-12-15T06:42:23.597Z,90.97
2017-12-15T06:44:51.952Z,91.11
2017-12-15T06:47:21.048Z,91.59
2017-12-15T06:49:50.201Z,91.78
2017-12-15T06:52:18.508Z,91.69
2017-12-15T06:54:46.834Z,91.47
2017-12-15T06:57:15.286Z,91.19
2017-12-15T06:59:44.375Z,91.78
2017-12-15T07:02:13.506Z,91.42
2017-12-15T07:04:41.823Z,91.58
2017-12-15T07:07:10.140Z,91.62
2017-12-15T07:09:38.477Z,91.74
2017-12-15T07:12:06.796Z,91.62
2017-12-15T07:14:35.113Z,91.65
2017-12-15T07:17:03.472Z,91.86
2017-12-15T07:19:31.799Z,91.79
2017-12-15T07:22:00.130Z,92.14
2017-12-15T07:24:28.482Z,92.65
2017-12-15T07:26:56.798Z,92.94
2017-12-15T07:29:25.133Z,92.69
2017-12-15T07:31:53.468Z,92.44
2017-12-15T07:34:21.792Z,94.87
2017-12-15T07:36:50.164Z,93.13
2017-12-15T07:39:18.514Z,92.82
2017-12-15T07:41:46.840Z,92.36
2017-12-15T07:44:15.165Z,92.05
2017-12-15T07:46:43.530Z,91.66
2017-12-15T07:49:12.741Z,91.89
2017-12-15T07:51:41.120Z,92.08
2017-12-15T07:54:09.505Z,91.81
2017-12-15T07:56:38.718Z,91.86
2017-12-15T07:59:07.077Z,91.71
2017-12-15T08:01:36.213Z,91.52
2017-12-15T08:04:04.537Z,91.17
2017-12-15T08:06:32.899Z,91.39
2017-12-15T08:09:01.222Z,91.42
2017-12-15T08:11:29.546Z,91.06
2017-12-15T08:13:57.917Z,91.07
2017-12-15T08:16:26.231Z,90.88
2017-12-15T08:18:54.553Z,90.48
2017-12-15T08:21:22.920Z,90.25
2017-12-15T08:23:51.244Z,89.92
2017-12-15T08:26:19.572Z,89.51
2017-12-15T08:28:47.907Z,89.28
2017-12-15T08:31:16.278Z,89.83
2017-12-15T08:33:44.613Z,89.02
2017-12-15T08:36:12.952Z,88.53
2017-12-15T08:38:42.040Z,88.23
2017-12-15T08:41:10.395Z,88.32
2017-12-15T08:43:38.730Z,88.65
2017-12-15T08:46:07.069Z,89.70
2017-12-15T08:48:35.584Z,89.86
2017-12-15T08:51:03.941Z,90.21
2017-12-15T08:53:33.042Z,90.40
2017-12-15T08:56:02.157Z,89.54
2017-12-15T08:58:30.480Z,89.29
2017-12-15T09:00:58.817Z,89.66
2017-12-15T09:03:27.197Z,90.08
2017-12-15T09:05:55.515Z,89.82
2017-12-15T09:08:23.839Z,89.88
2017-12-15T09:10:52.196Z,89.80
2017-12-15T09:13:21.281Z,89.74
2017-12-15T09:15:49.612Z,89.61
2017-12-15T09:18:17.976Z,89.60
2017-12-15T09:20:46.332Z,89.08
2017-12-15T09:23:14.669Z,89.43
2017-12-15T09:25:43.025Z,88.83
2017-12-15T09:28:11.346Z,88.72
2017-12-15T09:30:40.493Z,88.77
2017-12-15T09:33:08.832Z,88.33
2017-12-15T09:35:37.925Z,88.84
2017-12-15T09:38:07.060Z,89.56
2017-12-15T09:40:35.397Z,89.30
2017-12-15T09:43:04.509Z,88.93
2017-12-15T09:45:32.876Z,88.44
2017-12-15T09:48:01.962Z,88.43
2017-12-15T09:50:30.293Z,88.14
2017-12-15T09:52:58.721Z,88.03
2017-12-15T09:55:27.839Z,87.10
2017-12-15T09:57:56.176Z,87.28
2017-12-15T10:00:24.521Z,87.17
2017-12-15T10:02:52.893Z,87.14
2017-12-15T10:05:21.215Z,87.40
2017-12-15T10:07:49.588Z,87.49
2017-12-15T10:10:17.942Z,87.17
2017-12-15T10:12:46.321Z,87.10
2017-12-15T10:15:14.735Z,86.74
2017-12-15T10:17:43.896Z,86.97
2017-12-15T10:20:12.253Z,87.16
2017-12-15T10:22:40.582Z,87.31
2017-12-15T10:25:08.926Z,86.92
2017-12-15T10:27:37.252Z,87.01
2017-12-15T10:30:06.064Z,86.24
2017-12-15T10:32:34.429Z,87.15
2017-12-15T10:35:02.782Z,87.37
2017-12-15T10:37:31.927Z,87.50
2017-12-15T10:40:00.459Z,87.72
2017-12-15T10:42:29.571Z,86.42
2017-12-15T10:44:58.680Z,85.38
2017-12-15T10:47:27.022Z,84.86
2017-12-15T10:49:55.349Z,83.82
2017-12-15T10:52:23.669Z,83.53
2017-12-15T10:54:52.081Z,82.23
2017-12-15T10:57:20.366Z,80.23
2017-12-15T10:59:48.693Z,80.67
2017-12-15T11:02:17.055Z,81.38
2017-12-15T11:04:45.399Z,82.15
2017-12-15T11:07:13.744Z,81.93
2017-12-15T11:09:42.096Z,81.67
2017-12-15T11:12:10.421Z,81.25
2017-12-15T11:14:38.747Z,81.57
2017-12-15T11:17:07.092Z,81.07
2017-12-15T11:19:35.424Z,80.59
2017-12-15T11:22:03.750Z,79.77
2017-12-15T11:24:32.114Z,80.10
2017-12-15T11:27:00.442Z,78.19
2017-12-15T11:29:28.777Z,78.04
2017-12-15T11:31:57.143Z,78.29
2017-12-15T11:34:25.473Z,78.21
2017-12-15T11:36:53.800Z,77.41
2017-12-15T11:39:22.142Z,77.25
2017-12-15T11:41:50.474Z,77.81
2017-12-15T11:44:18.820Z,78.35
2017-12-15T11:46:47.905Z,78.47
2017-12-15T11:49:16.980Z,78.49
2017-12-15T11:51:45.335Z,78.88
2017-12-15T11:54:13.660Z,78.85
2017-12-15T11:56:42.756Z,78.24
2017-12-15T11:59:11.884Z,79.00
2017-12-15T12:01:40.207Z,78.33
2017-12-15T12:04:08.535Z,79.22
2017-12-15T12:06:36.876Z,79.03
2017-12-15T12:09:05.975Z,78.47
2017-12-15T12:11:35.074Z,78.72
2017-12-15T12:14:04.181Z,79.31
2017-12-15T12:16:32.504Z,79.38
2017-12-15T12:19:00.830Z,78.69
2017-12-15T12:21:29.182Z,78.87
2017-12-15T12:23:57.533Z,78.62
2017-12-15T12:26:25.854Z,77.74
2017-12-15T12:28:54.980Z,78.02
2017-12-15T12:31:23.312Z,77.65
2017-12-15T12:33:51.645Z,76.95
2017-12-15T12:36:20.011Z,77.26
2017-12-15T12:38:52.406Z,77.09
2017-12-15T12:41:20.776Z,76.60
2017-12-15T12:43:49.096Z,76.51
2017-12-15T12:46:18.187Z,76.02
2017-12-15T12:48:46.528Z,76.41
2017-12-15T12:51:14.880Z,76.82
2017-12-15T12:53:43.218Z,76.89
2017-12-15T12:56:12.353Z,77.20
2017-12-15T12:58:40.731Z,76.72
2017-12-15T13:01:09.070Z,77.38
2017-12-15T13:03:38.168Z,77.69
2017-12-15T13:06:07.360Z,78.29
2017-12-15T13:08:35.703Z,78.02
2017-12-15T13:11:04.028Z,78.66
2017-12-15T13:13:33.149Z,78.83
2017-12-15T13:16:01.468Z,79.08
2017-12-15T13:18:29.805Z,79.14
2017-12-15T13:20:58.152Z,78.93
2017-12-15T13:23:27.261Z,79.35
2017-12-15T13:25:55.600Z,79.12
2017-12-15T13:28:23.954Z,78.67
2017-12-15T13:30:52.275Z,78.59
2017-12-15T13:33:21.368Z,78.59
2017-12-15T13:35:50.491Z,78.09
2017-12-15T13:38:18.820Z,77.89
2017-12-15T13:40:47.158Z,77.86
2017-12-15T13:43:15.537Z,76.98
2017-12-15T13:45:43.866Z,77.12
2017-12-15T13:48:12.987Z,77.47
2017-12-15T13:50:41.401Z,77.88
2017-12-15T13:53:10.674Z,78.31
2017-12-15T13:55:39.055Z,78.71
2017-12-15T13:58:07.474Z,79.05
2017-12-15T14:00:35.868Z,79.95
2017-12-15T14:03:04.201Z,80.38
2017-12-15T14:05:32.560Z,80.82
2017-12-15T14:08:00.940Z,80.80
2017-12-15T14:10:29.293Z,80.60
2017-12-15T14:12:58.435Z,80.75
2017-12-15T14:15:26.817Z,80.42
2017-12-15T14:17:55.145Z,80.71
2017-12-15T14:20:23.465Z,80.96
2017-12-15T14:22:51.824Z,81.08
2017-12-15T14:25:20.160Z,81.61
2017-12-15T14:27:48.480Z,82.11
2017-12-15T14:30:16.882Z,82.54
2017-12-15T14:32:45.310Z,83.10
2017-12-15T14:35:14.488Z,83.16
2017-12-15T14:37:42.890Z,83.31
2017-12-15T14:40:11.244Z,83.14
2017-12-15T14:42:39.576Z,83.21
2017-12-15T14:45:07.972Z,83.68
2017-12-15T14:47:36.296Z,83.86
2017-12-15T14:50:05.381Z,83.27
2017-12-15T14:52:33.749Z,83.17
2017-12-15T14:55:02.074Z,83.28
2017-12-15T14:57:30.412Z,83.52
2017-12-15T14:59:59.579Z,84.04
2017-12-15T15:02:27.904Z,84.73
2017-12-15T15:04:57.003Z,93.12
2017-12-15T15:07:26.133Z,83.59
2017-12-15T15:09:54.463Z,83.06
2017-12-15T15:12:23.552Z,84.66
2017-12-15T15:14:51.897Z,85.47
2017-12-15T15:17:20.241Z,85.48
2017-12-15T15:19:48.559Z,86.07
2017-12-15T15:22:16.903Z,86.04
2017-12-15T15:24:45.226Z,86.02
2017-12-15T15:27:13.564Z,86.58
2017-12-15T15:29:41.944Z,86.84
2017-12-15T15:32:10.301Z,86.67
2017-12-15T15:34:38.640Z,87.33
2017-12-15T15:37:06.988Z,87.21
2017-12-15T15:39:35.314Z,87.54
2017-12-15T15:42:04.469Z,87.73
2017-12-15T15:44:32.816Z,87.78
2017-12-15T15:47:01.176Z,87.78
2017-12-15T15:49:29.547Z,87.60
2017-12-15T15:51:58.652Z,88.01
2017-12-15T15:54:26.975Z,87.05
2017-12-15T15:56:55.355Z,86.89
2017-12-15T15:59:23.696Z,89.82
2017-12-15T16:01:52.088Z,85.31
2017-12-15T16:04:20.498Z,85.41
2017-12-15T16:06:48.812Z,85.80
2017-12-15T16:09:17.903Z,85.61
2017-12-15T16:11:47.063Z,85.91
2017-12-15T16:14:15.389Z,85.72
2017-12-15T16:16:43.719Z,86.46
2017-12-15T16:19:12.227Z,87.13
2017-12-15T16:21:41.323Z,87.00
2017-12-15T16:24:10.622Z,87.09
2017-12-15T16:26:39.716Z,87.18
2017-12-15T16:29:08.835Z,87.43
2017-12-15T16:31:37.169Z,87.31
2017-12-15T16:34:05.571Z,87.19
2017-12-15T16:36:33.926Z,87.10
2017-12-15T16:39:02.296Z,86.98
2017-12-15T16:41:30.618Z,86.86
2017-12-15T16:43:58.952Z,86.21
2017-12-15T16:46:27.304Z,86.66
2017-12-15T16:48:55.636Z,87.94
2017-12-15T16:51:24.731Z,87.12
2017-12-15T16:53:53.865Z,86.96
2017-12-15T16:56:22.176Z,87.26
2017-12-15T16:58:50.513Z,87.49
2017-12-15T17:01:18.848Z,89.06
2017-12-15T17:03:47.936Z,87.30
2017-12-15T17:06:17.025Z,86.62
2017-12-15T17:08:45.389Z,87.39
2017-12-15T17:11:13.743Z,87.14
2017-12-15T17:13:42.072Z,86.84
2017-12-15T17:16:11.274Z,86.68
2017-12-15T17:18:40.360Z,86.61
2017-12-15T17:21:08.736Z,86.30
2017-12-15T17:23:37.078Z,86.29
2017-12-15T17:26:05.407Z,86.35
2017-12-15T17:28:34.536Z,86.38
2017-12-15T17:31:02.868Z,85.81
2017-12-15T17:33:31.992Z,85.71
2017-12-15T17:36:00.320Z,85.81
2017-12-15T17:38:28.653Z,85.60
2017-12-15T17:40:57.021Z,85.51
2017-12-15T17:43:25.349Z,85.85
2017-12-15T17:45:53.665Z,85.99
2017-12-15T17:48:22.018Z,86.23
2017-12-15T17:50:50.360Z,85.95
2017-12-15T17:53:18.679Z,86.21
2017-12-15T17:55:47.775Z,86.73
2017-12-15T17:58:16.148Z,86.86
2017-12-15T18:00:44.499Z,86.59
2017-12-15T18:03:12.838Z,86.09
2017-12-15T18:05:41.191Z,85.75
2017-12-15T18:08:10.304Z,85.67
2017-12-15T18:10:38.640Z,85.14
2017-12-15T18:13:06.978Z,85.53
2017-12-15T18:15:35.317Z,85.14
2017-12-15T18:18:04.402Z,85.52
2017-12-15T18:20:32.844Z,85.26
2017-12-15T18:23:01.226Z,85.35
2017-12-15T18:25:29.573Z,85.53
2017-12-15T18:27:57.901Z,85.50
2017-12-15T18:30:26.257Z,85.57
2017-12-15T18:32:54.620Z,85.99
2017-12-15T18:35:22.966Z,85.93
2017-12-15T18:37:52.124Z,86.00
2017-12-15T18:40:20.461Z,85.44
2017-12-15T18:42:48.780Z,85.18
2017-12-15T18:45:17.124Z,85.17
2017-12-15T18:47:45.469Z,84.85
2017-12-15T18:50:14.568Z,84.42
2017-12-15T18:52:42.936Z,84.79
2017-12-15T18:55:12.040Z,84.95
2017-12-15T18:57:41.134Z,85.30
2017-12-15T19:00:10.253Z,85.62
2017-12-15T19:02:38.617Z,85.45
2017-12-15T19:05:06.937Z,85.64
2017-12-15T19:07:35.289Z,85.61
2017-12-15T19:10:03.922Z,85.23
2017-12-15T19:12:32.278Z,84.76
2017-12-15T19:15:00.653Z,84.51
2017-12-15T19:17:28.981Z,84.86
2017-12-15T19:19:58.083Z,84.93
2017-12-15T19:22:26.449Z,85.05
2017-12-15T19:24:55.544Z,85.19
2017-12-15T19:27:24.642Z,84.98
2017-12-15T19:29:53.788Z,84.92
2017-12-15T19:32:22.103Z,85.07
2017-12-15T19:34:51.179Z,85.05
2017-12-15T19:37:19.533Z,84.78
2017-12-15T19:39:47.955Z,84.53
2017-12-15T19:42:17.045Z,84.89
2017-12-15T19:44:46.396Z,84.55
2017-12-15T19:47:15.795Z,84.20
2017-12-15T19:49:45.288Z,83.97
2017-12-15T19:52:14.274Z,84.22
2017-12-15T19:54:42.738Z,84.43
2017-12-15T19:57:11.826Z,84.71
2017-12-15T19:59:41.004Z,84.65
2017-12-15T20:02:09.396Z,84.72
2017-12-15T20:04:39.693Z,84.40
2017-12-15T20:07:08.053Z,84.04
2017-12-15T20:09:36.370Z,84.29
2017-12-15T20:12:05.249Z,84.00
2017-12-15T20:14:33.661Z,83.83
2017-12-15T20:17:02.214Z,83.43
2017-12-15T20:19:30.564Z,83.36
2017-12-15T20:21:58.917Z,83.48
2017-12-15T20:24:27.236Z,83.31
2017-12-15T20:26:55.552Z,83.28
2017-12-15T20:29:23.975Z,83.04
2017-12-15T20:31:52.320Z,83.70
2017-12-15T20:34:20.673Z,83.59
2017-12-15T20:36:49.765Z,83.70
2017-12-15T20:39:18.888Z,84.18
2017-12-15T20:41:47.421Z,84.90
2017-12-15T20:44:16.657Z,85.11
2017-12-15T20:46:44.984Z,85.50
2017-12-15T20:49:13.497Z,85.50
2017-12-15T20:51:42.599Z,85.55
2017-12-15T20:54:11.731Z,85.67
2017-12-15T20:56:41.268Z,85.66
2017-12-15T20:59:09.620Z,86.05
2017-12-15T21:01:38.061Z,86.86
2017-12-15T21:04:10.761Z,87.03
2017-12-15T21:06:39.133Z,87.87
2017-12-15T21:09:07.794Z,87.75
2017-12-15T21:11:36.192Z,87.76
2017-12-15T21:14:04.516Z,87.93
2017-12-15T21:16:32.866Z,87.96
2017-12-15T21:19:01.177Z,88.25
2017-12-15T21:21:30.729Z,88.18
2017-12-15T21:23:59.088Z,88.58
2017-12-15T21:26:28.195Z,88.92
2017-12-15T21:28:57.399Z,88.99
2017-12-15T21:31:25.744Z,89.05
2017-12-15T21:33:54.090Z,89.07
2017-12-15T21:36:22.559Z,89.29
2017-12-15T21:38:50.871Z,89.42
2017-12-15T21:41:19.225Z,89.80
2017-12-15T21:43:47.548Z,90.03
2017-12-15T21:46:16.641Z,90.12
2017-12-15T21:48:45.748Z,90.17
2017-12-15T21:51:14.844Z,90.14
2017-12-15T21:53:43.938Z,90.23
2017-12-15T21:56:12.316Z,90.42
2017-12-15T21:58:41.477Z,90.61
2017-12-15T22:01:09.814Z,90.48
2017-12-15T22:03:38.180Z,90.56
2017-12-15T22:06:06.512Z,90.83
2017-12-15T22:08:34.832Z,90.85
2017-12-15T22:11:03.184Z,91.23
2017-12-15T22:13:32.312Z,91.55
2017-12-15T22:16:00.655Z,91.63
2017-12-15T22:18:29.877Z,91.93
2017-12-15T22:20:58.216Z,91.86
2017-12-15T22:23:26.608Z,91.83
2017-12-15T22:25:55.724Z,91.79
2017-12-15T22:28:24.088Z,91.93
2017-12-15T22:30:53.274Z,91.93
2017-12-15T22:33:21.598Z,91.97
2017-12-15T22:35:49.929Z,91.97
2017-12-15T22:38:18.255Z,91.75
2017-12-15T22:40:46.578Z,91.46
2017-12-15T22:43:14.931Z,91.05
2017-12-15T22:45:43.331Z,90.80
2017-12-15T22:48:11.642Z,90.28
2017-12-15T22:50:39.988Z,90.07
2017-12-15T22:53:09.109Z,89.68
2017-12-15T22:55:38.233Z,89.36
2017-12-15T22:58:06.635Z,89.40
2017-12-15T23:00:34.969Z,89.12
2017-12-15T23:03:03.310Z,88.64
2017-12-15T23:05:31.659Z,88.81
2017-12-15T23:07:59.988Z,88.73
2017-12-15T23:10:29.080Z,88.75
2017-12-15T23:12:58.268Z,88.95
2017-12-15T23:15:26.620Z,89.39
2017-12-15T23:17:55.753Z,89.25
2017-12-15T23:20:24.865Z,88.89
2017-12-15T23:22:53.188Z,88.78
2017-12-15T23:25:21.591Z,88.66
2017-12-15T23:27:50.715Z,88.62
2017-12-15T23:30:19.058Z,88.38
2017-12-15T23:32:47.398Z,88.09
2017-12-15T23:35:15.753Z,87.92
2017-12-15T23:37:44.075Z,87.84
2017-12-15T23:40:12.426Z,87.55
2017-12-15T23:42:40.794Z,87.72
2017-12-15T23:45:09.218Z,87.34
2017-12-15T23:47:37.549Z,87.66
2017-12-15T23:50:05.905Z,86.99
2017-12-15T23:52:34.996Z,87.18
2017-12-15T23:55:21.919Z,87.17
2017-12-15T23:57:50.267Z,87.26
